METAR

TAF

 




Curitiba / Bacacheri, PR - SBBI


01 de Novembro de 2014 às 13:00 (UTC)


Tempo:

Céu sem restrições operacionais para aviação

Temperatura:

27ºC

Umidade Relativa:

54%

Localização:
Ajuste do Altímetro:

1019 hPa

Visibilidade Horizontal Predominante:

Igual ou acima de 10 Km

Direção e Velocidade do Vento:

330° 11,11 Km/h


Observação Meteorológica:

METAR SBBI 011300Z 33006KT CAVOK 27/17 Q1019=